sensor_id;sensor_type;location;lat;lon;timestamp;pressure;altitude;pressure_sealevel;temperature;humidity
51081;BME280;37130;55.670;37.596;2022-12-13T00:01:56;98446.31;;;0.42;100.00
51081;BME280;37130;55.670;37.596;2022-12-13T00:04:24;98462.72;;;0.44;100.00
51081;BME280;37130;55.670;37.596;2022-12-13T00:06:52;98469.69;;;0.44;100.00
51081;BME280;37130;55.670;37.596;2022-12-13T00:09:20;98436.94;;;0.35;100.00
51081;BME280;37130;55.670;37.596;2022-12-13T00:11:49;98468.66;;;0.51;100.00
51081;BME280;37130;55.670;37.596;2022-12-13T00:14:17;98381.28;;;0.05;100.00
51081;BME280;37130;55.670;37.596;2022-12-13T00:16:48;98459.09;;;0.52;100.00
51081;BME280;37130;55.670;37.596;2022-12-13T00:19:16;98464.19;;;0.56;100.00
51081;BME280;37130;55.670;37.596;2022-12-13T00:21:44;98380.28;;;0.11;100.00
51081;BME280;37130;55.670;37.596;2022-12-13T00:24:12;98482.34;;;0.59;100.00
51081;BME280;37130;55.670;37.596;2022-12-13T00:26:40;98465.94;;;0.56;100.00
51081;BME280;37130;55.670;37.596;2022-12-13T00:29:09;98465.03;;;0.57;100.00
51081;BME280;37130;55.670;37.596;2022-12-13T00:31:37;98392.31;;;0.15;100.00
51081;BME280;37130;55.670;37.596;2022-12-13T00:34:25;98448.72;;;0.50;100.00
51081;BME280;37130;55.670;37.596;2022-12-13T00:36:53;98459.75;;;0.60;100.00
51081;BME280;37130;55.670;37.596;2022-12-13T00:39:21;98440.94;;;0.49;100.00
51081;BME280;37130;55.670;37.596;2022-12-13T00:41:49;98467.44;;;0.64;100.00
51081;BME280;37130;55.670;37.596;2022-12-13T00:44:17;98454.59;;;0.58;100.00
51081;BME280;37130;55.670;37.596;2022-12-13T00:46:46;98457.22;;;0.57;100.00
51081;BME280;37130;55.670;37.596;2022-12-13T00:49:13;98443.25;;;0.59;100.00
51081;BME280;37130;55.670;37.596;2022-12-13T00:51:41;98355.41;;;-0.01;100.00
51081;BME280;37130;55.670;37.596;2022-12-13T00:54:09;98461.47;;;0.61;100.00
51081;BME280;37130;55.670;37.596;2022-12-13T00:56:37;98459.63;;;0.64;100.00
51081;BME280;37130;55.670;37.596;2022-12-13T00:59:05;98451.81;;;0.64;100.00
51081;BME280;37130;55.670;37.596;2022-12-13T01:01:34;98455.16;;;0.70;100.00
51081;BME280;37130;55.670;37.596;2022-12-13T01:04:04;98461.28;;;0.69;100.00
51081;BME280;37130;55.670;37.596;2022-12-13T01:06:40;98459.53;;;0.68;100.00
51081;BME280;37130;55.670;37.596;2022-12-13T01:09:19;98453.59;;;0.62;100.00
51081;BME280;37130;55.670;37.596;2022-12-13T01:11:48;98322.69;;;-0.11;100.00
51081;BME280;37130;55.670;37.596;2022-12-13T01:14:16;98364.47;;;0.18;100.00
51081;BME280;37130;55.670;37.596;2022-12-13T01:16:44;98457.88;;;0.65;100.00
51081;BME280;37130;55.670;37.596;2022-12-13T01:19:12;98450.16;;;0.62;100.00
51081;BME280;37130;55.670;37.596;2022-12-13T01:21:39;98455.19;;;0.68;100.00
51081;BME280;37130;55.670;37.596;2022-12-13T01:24:07;98375.59;;;0.24;100.00
51081;BME280;37130;55.670;37.596;2022-12-13T01:26:35;98458.53;;;0.73;100.00
51081;BME280;37130;55.670;37.596;2022-12-13T01:29:02;98451.63;;;0.72;100.00
51081;BME280;37130;55.670;37.596;2022-12-13T01:31:32;98449.78;;;0.76;100.00
51081;BME280;37130;55.670;37.596;2022-12-13T01:34:00;98441.09;;;0.75;100.00
51081;BME280;37130;55.670;37.596;2022-12-13T01:36:37;98442.88;;;0.73;100.00
51081;BME280;37130;55.670;37.596;2022-12-13T01:39:06;98400.00;;;0.54;100.00
51081;BME280;37130;55.670;37.596;2022-12-13T01:41:43;98444.50;;;0.79;100.00
51081;BME280;37130;55.670;37.596;2022-12-13T01:47:22;98450.56;;;0.79;100.00
51081;BME280;37130;55.670;37.596;2022-12-13T01:49:53;98440.47;;;0.67;100.00
51081;BME280;37130;55.670;37.596;2022-12-13T01:52:27;98453.31;;;0.73;100.00
51081;BME280;37130;55.670;37.596;2022-12-13T01:54:57;98430.09;;;0.65;100.00
51081;BME280;37130;55.670;37.596;2022-12-13T01:57:31;98460.88;;;0.84;100.00
51081;BME280;37130;55.670;37.596;2022-12-13T02:00:01;98358.38;;;0.19;100.00
51081;BME280;37130;55.670;37.596;2022-12-13T02:02:33;98421.69;;;0.54;100.00
51081;BME280;37130;55.670;37.596;2022-12-13T02:05:26;98463.72;;;0.75;100.00
51081;BME280;37130;55.670;37.596;2022-12-13T02:07:56;98404.50;;;0.47;100.00
51081;BME280;37130;55.670;37.596;2022-12-13T02:10:25;98458.09;;;0.90;100.00
51081;BME280;37130;55.670;37.596;2022-12-13T02:12:54;98451.31;;;0.84;100.00
51081;BME280;37130;55.670;37.596;2022-12-13T02:15:22;98454.75;;;0.85;100.00
51081;BME280;37130;55.670;37.596;2022-12-13T02:20:46;98465.19;;;0.85;100.00
51081;BME280;37130;55.670;37.596;2022-12-13T02:23:33;98457.44;;;0.82;100.00
51081;BME280;37130;55.670;37.596;2022-12-13T02:32:03;98435.13;;;0.72;100.00
51081;BME280;37130;55.670;37.596;2022-12-13T02:34:40;98455.47;;;0.90;100.00
51081;BME280;37130;55.670;37.596;2022-12-13T02:40:29;98454.97;;;0.77;100.00
51081;BME280;37130;55.670;37.596;2022-12-13T02:43:02;98454.97;;;0.76;100.00
51081;BME280;37130;55.670;37.596;2022-12-13T02:45:45;98454.34;;;0.68;100.00
51081;BME280;37130;55.670;37.596;2022-12-13T02:48:17;98463.88;;;0.69;100.00
51081;BME280;37130;55.670;37.596;2022-12-13T02:50:47;98472.53;;;0.69;100.00
51081;BME280;37130;55.670;37.596;2022-12-13T02:53:19;98464.66;;;0.71;100.00
51081;BME280;37130;55.670;37.596;2022-12-13T02:55:48;98465.56;;;0.70;100.00
51081;BME280;37130;55.670;37.596;2022-12-13T02:58:20;98470.03;;;0.66;100.00
51081;BME280;37130;55.670;37.596;2022-12-13T03:06:56;98462.22;;;0.64;100.00
51081;BME280;37130;55.670;37.596;2022-12-13T03:15:22;98467.50;;;0.63;100.00
51081;BME280;37130;55.670;37.596;2022-12-13T03:20:25;98469.28;;;0.61;100.00
51081;BME280;37130;55.670;37.596;2022-12-13T03:22:55;98326.50;;;-0.25;100.00
51081;BME280;37130;55.670;37.596;2022-12-13T03:25:26;98467.53;;;0.61;100.00
51081;BME280;37130;55.670;37.596;2022-12-13T03:27:59;98400.94;;;0.17;100.00
51081;BME280;37130;55.670;37.596;2022-12-13T03:30:30;98480.59;;;0.60;100.00
51081;BME280;37130;55.670;37.596;2022-12-13T03:32:58;98475.34;;;0.61;100.00
51081;BME280;37130;55.670;37.596;2022-12-13T03:35:27;98472.84;;;0.57;100.00
51081;BME280;37130;55.670;37.596;2022-12-13T03:38:01;98470.34;;;0.54;100.00
51081;BME280;37130;55.670;37.596;2022-12-13T03:40:29;98471.16;;;0.56;100.00
51081;BME280;37130;55.670;37.596;2022-12-13T03:42:56;98464.38;;;0.49;100.00
51081;BME280;37130;55.670;37.596;2022-12-13T03:45:24;98471.16;;;0.56;100.00
51081;BME280;37130;55.670;37.596;2022-12-13T03:47:52;98473.03;;;0.51;100.00
51081;BME280;37130;55.670;37.596;2022-12-13T03:50:19;98477.28;;;0.53;100.00
51081;BME280;37130;55.670;37.596;2022-12-13T03:53:00;98464.31;;;0.52;100.00
51081;BME280;37130;55.670;37.596;2022-12-13T03:55:28;98454.00;;;0.47;100.00
51081;BME280;37130;55.670;37.596;2022-12-13T03:57:56;98466.78;;;0.56;100.00
51081;BME280;37130;55.670;37.596;2022-12-13T04:00:27;98459.16;;;0.50;100.00
51081;BME280;37130;55.670;37.596;2022-12-13T04:02:55;98464.19;;;0.56;100.00
51081;BME280;37130;55.670;37.596;2022-12-13T04:05:22;98476.44;;;0.53;100.00
51081;BME280;37130;55.670;37.596;2022-12-13T04:07:50;98459.06;;;0.53;100.00
51081;BME280;37130;55.670;37.596;2022-12-13T04:10:26;98441.91;;;0.44;100.00
51081;BME280;37130;55.670;37.596;2022-12-13T04:12:54;98468.47;;;0.59;100.00
51081;BME280;37130;55.670;37.596;2022-12-13T04:15:40;98471.16;;;0.56;100.00
51081;BME280;37130;55.670;37.596;2022-12-13T04:18:16;98466.88;;;0.53;100.00
51081;BME280;37130;55.670;37.596;2022-12-13T04:20:44;98457.34;;;0.52;100.00
51081;BME280;37130;55.670;37.596;2022-12-13T04:23:13;98465.84;;;0.59;100.00
51081;BME280;37130;55.670;37.596;2022-12-13T04:25:42;98473.50;;;0.65;100.00
51081;BME280;37130;55.670;37.596;2022-12-13T04:28:10;98470.88;;;0.67;100.00
51081;BME280;37130;55.670;37.596;2022-12-13T04:30:47;98478.53;;;0.73;100.00
51081;BME280;37130;55.670;37.596;2022-12-13T04:33:23;98469.03;;;0.70;100.00
51081;BME280;37130;55.670;37.596;2022-12-13T04:35:51;98474.22;;;0.72;100.00
51081;BME280;37130;55.670;37.596;2022-12-13T04:38:19;98482.84;;;0.74;100.00
51081;BME280;37130;55.670;37.596;2022-12-13T04:40:46;98463.91;;;0.67;100.00
51081;BME280;37130;55.670;37.596;2022-12-13T04:43:14;98469.75;;;0.77;100.00
51081;BME280;37130;55.670;37.596;2022-12-13T04:45:42;98474.97;;;0.75;100.00
51081;BME280;37130;55.670;37.596;2022-12-13T04:48:09;98327.03;;;-0.10;100.00
51081;BME280;37130;55.670;37.596;2022-12-13T04:50:37;98479.31;;;0.76;100.00
51081;BME280;37130;55.670;37.596;2022-12-13T04:53:04;98479.31;;;0.76;100.00
51081;BME280;37130;55.670;37.596;2022-12-13T04:55:32;98396.41;;;0.25;100.00
51081;BME280;37130;55.670;37.596;2022-12-13T04:58:00;98470.03;;;0.66;100.00
51081;BME280;37130;55.670;37.596;2022-12-13T05:00:28;98482.81;;;0.75;100.00
51081;BME280;37130;55.670;37.596;2022-12-13T05:02:56;98487.97;;;0.77;100.00
51081;BME280;37130;55.670;37.596;2022-12-13T05:05:23;98493.13;;;0.78;100.00
51081;BME280;37130;55.670;37.596;2022-12-13T05:07:51;98467.34;;;0.69;100.00
51081;BME280;37130;55.670;37.596;2022-12-13T05:10:18;98480.91;;;0.82;100.00
51081;BME280;37130;55.670;37.596;2022-12-13T05:13:04;98492.06;;;0.87;100.00
51081;BME280;37130;55.670;37.596;2022-12-13T05:15:33;98480.91;;;0.82;100.00
51081;BME280;37130;55.670;37.596;2022-12-13T05:18:05;98484.34;;;0.84;100.00
51081;BME280;37130;55.670;37.596;2022-12-13T05:20:38;98478.13;;;0.88;100.00
51081;BME280;37130;55.670;37.596;2022-12-13T05:23:05;98481.56;;;0.88;100.00
51081;BME280;37130;55.670;37.596;2022-12-13T05:25:33;98489.38;;;0.90;100.00
51081;BME280;37130;55.670;37.596;2022-12-13T05:28:04;98407.16;;;0.46;100.00
51081;BME280;37130;55.670;37.596;2022-12-13T05:30:56;98489.94;;;1.01;100.00
51081;BME280;37130;55.670;37.596;2022-12-13T05:33:24;98487.41;;;0.98;100.00
51081;BME280;37130;55.670;37.596;2022-12-13T05:35:52;98485.56;;;1.02;100.00
51081;BME280;37130;55.670;37.596;2022-12-13T05:38:27;98501.09;;;1.06;100.00
51081;BME280;37130;55.670;37.596;2022-12-13T05:40:56;98414.69;;;0.56;100.00
51081;BME280;37130;55.670;37.596;2022-12-13T05:43:24;98493.34;;;1.03;100.00
51081;BME280;37130;55.670;37.596;2022-12-13T05:46:10;98438.63;;;0.71;100.00
51081;BME280;37130;55.670;37.596;2022-12-13T05:48:38;98493.31;;;1.05;100.00
51081;BME280;37130;55.670;37.596;2022-12-13T05:51:07;98501.19;;;1.02;100.00
51081;BME280;37130;55.670;37.596;2022-12-13T05:53:41;98419.16;;;0.51;100.00
51081;BME280;37130;55.670;37.596;2022-12-13T05:56:10;98503.66;;;1.08;100.00
51081;BME280;37130;55.670;37.596;2022-12-13T05:58:39;98498.38;;;1.11;100.00
51081;BME280;37130;55.670;37.596;2022-12-13T06:01:12;98426.66;;;0.63;100.00
51081;BME280;37130;55.670;37.596;2022-12-13T06:03:41;98494.09;;;1.08;100.00
51081;BME280;37130;55.670;37.596;2022-12-13T06:06:10;98496.69;;;1.08;100.00
51081;BME280;37130;55.670;37.596;2022-12-13T06:08:39;98486.50;;;0.99;100.00
51081;BME280;37130;55.670;37.596;2022-12-13T06:11:06;98495.00;;;1.07;100.00
51081;BME280;37130;55.670;37.596;2022-12-13T06:13:39;98498.41;;;1.09;100.00
51081;BME280;37130;55.670;37.596;2022-12-13T06:16:11;98417.06;;;0.65;100.00
51081;BME280;37130;55.670;37.596;2022-12-13T06:18:54;98495.66;;;1.14;100.00
51081;BME280;37130;55.670;37.596;2022-12-13T06:21:32;98498.31;;;1.13;100.00
51081;BME280;37130;55.670;37.596;2022-12-13T06:24:15;98471.13;;;0.90;100.00
51081;BME280;37130;55.670;37.596;2022-12-13T06:26:43;98486.00;;;1.18;100.00
51081;BME280;37130;55.670;37.596;2022-12-13T06:29:13;98482.63;;;1.14;100.00
51081;BME280;37130;55.670;37.596;2022-12-13T06:31:55;98494.72;;;1.17;100.00
51081;BME280;37130;55.670;37.596;2022-12-13T06:34:34;98506.06;;;1.16;100.00
51081;BME280;37130;55.670;37.596;2022-12-13T06:37:04;98435.03;;;0.75;100.00
51081;BME280;37130;55.670;37.596;2022-12-13T06:39:32;98361.72;;;0.25;100.00
51081;BME280;37130;55.670;37.596;2022-12-13T06:42:01;98519.13;;;1.14;100.00
51081;BME280;37130;55.670;37.596;2022-12-13T06:44:29;98531.16;;;1.20;100.00
51081;BME280;37130;55.670;37.596;2022-12-13T06:46:59;98526.78;;;1.20;100.00
51081;BME280;37130;55.670;37.596;2022-12-13T06:49:40;98530.28;;;1.21;100.00
51081;BME280;37130;55.670;37.596;2022-12-13T06:52:10;98530.13;;;1.25;100.00
51081;BME280;37130;55.670;37.596;2022-12-13T06:54:39;98539.69;;;1.25;100.00
51081;BME280;37130;55.670;37.596;2022-12-13T06:57:07;98543.97;;;1.27;100.00
51081;BME280;37130;55.670;37.596;2022-12-13T06:59:35;98519.34;;;1.06;100.00
51081;BME280;37130;55.670;37.596;2022-12-13T07:02:03;98489.19;;;0.96;100.00
51081;BME280;37130;55.670;37.596;2022-12-13T07:04:31;98550.75;;;1.35;100.00
51081;BME280;37130;55.670;37.596;2022-12-13T07:06:59;98555.22;;;1.29;100.00
51081;BME280;37130;55.670;37.596;2022-12-13T07:09:29;98560.06;;;1.43;100.00
51081;BME280;37130;55.670;37.596;2022-12-13T07:11:57;98566.06;;;1.47;100.00
51081;BME280;37130;55.670;37.596;2022-12-13T07:14:25;98572.38;;;1.38;100.00
51081;BME280;37130;55.670;37.596;2022-12-13T07:16:53;98568.28;;;1.29;100.00
51081;BME280;37130;55.670;37.596;2022-12-13T07:19:30;98515.31;;;0.95;100.00
51081;BME280;37130;55.670;37.596;2022-12-13T07:22:03;98513.69;;;0.91;100.00
51081;BME280;37130;55.670;37.596;2022-12-13T07:24:34;98568.38;;;1.25;100.00
51081;BME280;37130;55.670;37.596;2022-12-13T07:27:03;98571.09;;;1.22;100.00
51081;BME280;37130;55.670;37.596;2022-12-13T07:29:30;98578.78;;;1.26;100.00
51081;BME280;37130;55.670;37.596;2022-12-13T07:31:58;98577.84;;;1.29;100.00
51081;BME280;37130;55.670;37.596;2022-12-13T07:34:28;98520.75;;;0.85;100.00
51081;BME280;37130;55.670;37.596;2022-12-13T07:36:56;98589.38;;;1.20;100.00
51081;BME280;37130;55.670;37.596;2022-12-13T07:39:24;98597.19;;;1.20;100.00
51081;BME280;37130;55.670;37.596;2022-12-13T07:41:54;98586.81;;;1.19;100.00
51081;BME280;37130;55.670;37.596;2022-12-13T07:44:25;98472.53;;;0.35;100.00
51081;BME280;37130;55.670;37.596;2022-12-13T07:46:53;98588.59;;;1.17;100.00
51081;BME280;37130;55.670;37.596;2022-12-13T07:49:21;98601.72;;;1.14;100.00
51081;BME280;37130;55.670;37.596;2022-12-13T07:51:49;98594.78;;;1.13;100.00
51081;BME280;37130;55.670;37.596;2022-12-13T07:54:16;98528.13;;;0.68;100.00
51081;BME280;37130;55.670;37.596;2022-12-13T07:56:44;98593.09;;;1.12;100.00
51081;BME280;37130;55.670;37.596;2022-12-13T07:59:12;98593.81;;;1.17;100.00
51081;BME280;37130;55.670;37.596;2022-12-13T08:01:39;98592.16;;;1.13;100.00
51081;BME280;37130;55.670;37.596;2022-12-13T08:04:08;98596.50;;;1.14;100.00
51081;BME280;37130;55.670;37.596;2022-12-13T08:06:37;98600.06;;;1.09;100.00
51081;BME280;37130;55.670;37.596;2022-12-13T08:09:04;98593.09;;;1.10;100.00
51081;BME280;37130;55.670;37.596;2022-12-13T08:11:32;98535.00;;;0.72;100.00
51081;BME280;37130;55.670;37.596;2022-12-13T08:14:02;98613.84;;;1.16;100.00
51081;BME280;37130;55.670;37.596;2022-12-13T08:16:29;98612.16;;;1.14;100.00
51081;BME280;37130;55.670;37.596;2022-12-13T08:18:58;98601.91;;;1.06;100.00
51081;BME280;37130;55.670;37.596;2022-12-13T08:21:34;98607.97;;;1.08;100.00
51081;BME280;37130;55.670;37.596;2022-12-13T08:24:22;98608.69;;;1.13;100.00
51081;BME280;37130;55.670;37.596;2022-12-13T08:26:50;98543.66;;;0.73;100.00
51081;BME280;37130;55.670;37.596;2022-12-13T08:29:18;98617.31;;;1.15;100.00
51081;BME280;37130;55.670;37.596;2022-12-13T08:32:02;98613.00;;;1.14;100.00
51081;BME280;37130;55.670;37.596;2022-12-13T08:34:30;98615.59;;;1.16;100.00
51081;BME280;37130;55.670;37.596;2022-12-13T08:36:57;98615.63;;;1.14;100.00
51081;BME280;37130;55.670;37.596;2022-12-13T08:39:34;98619.03;;;1.16;100.00
51081;BME280;37130;55.670;37.596;2022-12-13T08:42:06;98618.13;;;1.19;100.00
51081;BME280;37130;55.670;37.596;2022-12-13T08:44:45;98616.25;;;1.24;100.00
51081;BME280;37130;55.670;37.596;2022-12-13T08:47:12;98620.47;;;1.28;100.00
51081;BME280;37130;55.670;37.596;2022-12-13T08:49:58;98636.72;;;1.39;100.00
51081;BME280;37130;55.670;37.596;2022-12-13T08:52:32;98637.56;;;1.40;100.00
51081;BME280;37130;55.670;37.596;2022-12-13T08:55:11;98633.94;;;1.45;100.00
51081;BME280;37130;55.670;37.596;2022-12-13T08:57:40;98651.16;;;1.52;100.00
51081;BME280;37130;55.670;37.596;2022-12-13T09:00:11;98653.75;;;1.52;100.00
51081;BME280;37130;55.670;37.596;2022-12-13T09:02:39;98588.78;;;1.11;100.00
51081;BME280;37130;55.670;37.596;2022-12-13T09:05:08;98627.34;;;1.30;100.00
51081;BME280;37130;55.670;37.596;2022-12-13T09:07:37;98609.56;;;1.14;100.00
51081;BME280;37130;55.670;37.596;2022-12-13T09:10:11;98581.41;;;0.92;100.00
51081;BME280;37130;55.670;37.596;2022-12-13T09:12:55;98674.84;;;1.43;100.00
51081;BME280;37130;55.670;37.596;2022-12-13T09:15:29;98601.09;;;1.04;100.00
51081;BME280;37130;55.670;37.596;2022-12-13T09:18:01;98672.13;;;1.48;100.00
51081;BME280;37130;55.670;37.596;2022-12-13T09:20:34;98677.34;;;1.48;100.00
51081;BME280;37130;55.670;37.596;2022-12-13T09:23:09;98679.13;;;1.46;100.00
51081;BME280;37130;55.670;37.596;2022-12-13T09:25:56;98687.06;;;1.41;100.00
51081;BME280;37130;55.670;37.596;2022-12-13T09:28:33;98630.56;;;1.07;100.00
51081;BME280;37130;55.670;37.596;2022-12-13T09:31:09;98684.47;;;1.41;100.00
51081;BME280;37130;55.670;37.596;2022-12-13T09:33:39;98689.03;;;1.33;100.00
51081;BME280;37130;55.670;37.596;2022-12-13T09:36:10;98688.09;;;1.36;100.00
51081;BME280;37130;55.670;37.596;2022-12-13T09:38:38;98686.94;;;1.47;100.00
51081;BME280;37130;55.670;37.596;2022-12-13T09:41:20;98644.28;;;1.16;100.00
51081;BME280;37130;55.670;37.596;2022-12-13T09:44:02;98680.97;;;1.42;100.00
51081;BME280;37130;55.670;37.596;2022-12-13T09:46:40;98676.91;;;1.30;100.00
51081;BME280;37130;55.670;37.596;2022-12-13T09:49:34;98646.13;;;1.11;100.00
51081;BME280;37130;55.670;37.596;2022-12-13T09:52:06;98692.19;;;1.46;100.00
51081;BME280;37130;55.670;37.596;2022-12-13T09:54:38;98689.25;;;1.58;100.00
51081;BME280;37130;55.670;37.596;2022-12-13T09:57:29;98691.69;;;1.66;100.00
51081;BME280;37130;55.670;37.596;2022-12-13T10:00:06;98685.72;;;1.61;100.00
51081;BME280;37130;55.670;37.596;2022-12-13T10:02:51;98693.78;;;1.51;100.00
51081;BME280;37130;55.670;37.596;2022-12-13T10:05:21;98702.59;;;1.47;100.00
51081;BME280;37130;55.670;37.596;2022-12-13T10:08:34;98702.69;;;1.44;100.00
51081;BME280;37130;55.670;37.596;2022-12-13T10:11:03;98693.75;;;1.53;100.00
51081;BME280;37130;55.670;37.596;2022-12-13T10:14:11;98699.13;;;1.47;100.00
51081;BME280;37130;55.670;37.596;2022-12-13T10:16:51;98693.31;;;1.36;100.00
51081;BME280;37130;55.670;37.596;2022-12-13T10:21:57;98708.03;;;1.38;100.00
51081;BME280;37130;55.670;37.596;2022-12-13T10:30:17;98715.03;;;1.36;100.00
51081;BME280;37130;55.670;37.596;2022-12-13T10:35:28;98725.69;;;1.28;100.00
51081;BME280;37130;55.670;37.596;2022-12-13T10:37:59;98664.22;;;0.81;100.00
51081;BME280;37130;55.670;37.596;2022-12-13T10:40:36;98738.16;;;1.16;100.00
51081;BME280;37130;55.670;37.596;2022-12-13T10:48:32;98745.22;;;1.11;100.00
51081;BME280;37130;55.670;37.596;2022-12-13T10:51:08;98744.34;;;1.10;100.00
51081;BME280;37130;55.670;37.596;2022-12-13T10:53:44;98746.16;;;1.06;100.00
51081;BME280;37130;55.670;37.596;2022-12-13T10:56:18;98729.13;;;0.92;100.00
51081;BME280;37130;55.670;37.596;2022-12-13T10:59:08;98664.13;;;0.47;100.00
51081;BME280;37130;55.670;37.596;2022-12-13T11:01:43;98744.75;;;0.92;100.00
51081;BME280;37130;55.670;37.596;2022-12-13T11:06:55;98752.69;;;0.87;100.00
51081;BME280;37130;55.670;37.596;2022-12-13T11:09:30;98751.72;;;0.91;100.00
51081;BME280;37130;55.670;37.596;2022-12-13T11:12:14;98757.09;;;0.85;100.00
51081;BME280;37130;55.670;37.596;2022-12-13T11:15:13;98760.63;;;0.81;100.00
51081;BME280;37130;55.670;37.596;2022-12-13T11:18:00;98766.69;;;0.83;100.00
51081;BME280;37130;55.670;37.596;2022-12-13T11:20:54;98769.44;;;0.77;100.00
51081;BME280;37130;55.670;37.596;2022-12-13T11:23:27;98765.06;;;0.77;100.00
51081;BME280;37130;55.670;37.596;2022-12-13T11:26:05;98778.06;;;0.79;100.00
51081;BME280;37130;55.670;37.596;2022-12-13T11:42:03;98789.81;;;0.56;100.00
51081;BME280;37130;55.670;37.596;2022-12-13T11:44:48;98796.69;;;0.60;100.00
51081;BME280;37130;55.670;37.596;2022-12-13T11:47:26;98703.09;;;0.09;100.00
51081;BME280;37130;55.670;37.596;2022-12-13T11:49:56;98795.94;;;0.55;100.00
51081;BME280;37130;55.670;37.596;2022-12-13T11:52:28;98801.88;;;0.62;100.00
51081;BME280;37130;55.670;37.596;2022-12-13T11:58:22;98816.03;;;0.47;100.00
51081;BME280;37130;55.670;37.596;2022-12-13T12:01:16;98832.56;;;0.46;100.00
51081;BME280;37130;55.670;37.596;2022-12-13T12:03:49;98838.63;;;0.47;100.00
51081;BME280;37130;55.670;37.596;2022-12-13T12:06:23;98855.25;;;0.41;100.00
51081;BME280;37130;55.670;37.596;2022-12-13T12:08:56;98836.06;;;0.45;100.00
51081;BME280;37130;55.670;37.596;2022-12-13T12:11:44;98841.22;;;0.48;100.00
51081;BME280;37130;55.670;37.596;2022-12-13T12:16:56;98829.06;;;0.47;100.00
51081;BME280;37130;55.670;37.596;2022-12-13T12:19:29;98834.34;;;0.44;100.00
51081;BME280;37130;55.670;37.596;2022-12-13T12:35:50;98827.38;;;0.46;100.00
51081;BME280;37130;55.670;37.596;2022-12-13T12:41:43;98805.88;;;0.35;100.00
51081;BME280;37130;55.670;37.596;2022-12-13T13:01:44;98803.91;;;0.01;100.00
51081;BME280;37130;55.670;37.596;2022-12-13T13:04:24;98749.91;;;-0.37;100.00
51081;BME280;37130;55.670;37.596;2022-12-13T13:06:59;98807.34;;;0.02;100.00
51081;BME280;37130;55.670;37.596;2022-12-13T13:09:50;98814.28;;;0.03;100.00
51081;BME280;37130;55.670;37.596;2022-12-13T13:12:22;98807.41;;;0.00;100.00
51081;BME280;37130;55.670;37.596;2022-12-13T13:14:56;98817.78;;;0.02;100.00
51081;BME280;37130;55.670;37.596;2022-12-13T13:20:16;98820.50;;;-0.06;100.00
51081;BME280;37130;55.670;37.596;2022-12-13T13:22:44;98820.34;;;0.03;100.00
51081;BME280;37130;55.670;37.596;2022-12-13T13:25:33;98818.63;;;0.02;100.00
51081;BME280;37130;55.670;37.596;2022-12-13T13:28:22;98806.50;;;0.01;100.00
51081;BME280;37130;55.670;37.596;2022-12-13T13:31:07;98753.34;;;-0.35;100.00
51081;BME280;37130;55.670;37.596;2022-12-13T13:33:49;98822.91;;;0.05;100.00
51081;BME280;37130;55.670;37.596;2022-12-13T13:42:08;98828.06;;;0.08;100.00
51081;BME280;37130;55.670;37.596;2022-12-13T13:50:17;98828.97;;;0.05;100.00
51081;BME280;37130;55.670;37.596;2022-12-13T13:55:59;98835.06;;;0.04;100.00
51081;BME280;37130;55.670;37.596;2022-12-13T13:58:41;98828.97;;;0.07;100.00
51081;BME280;37130;55.670;37.596;2022-12-13T14:21:44;98824.13;;;0.35;100.00
51081;BME280;37130;55.670;37.596;2022-12-13T14:24:36;98822.06;;;0.51;100.00
51081;BME280;37130;55.670;37.596;2022-12-13T14:29:45;98758.63;;;0.10;100.00
51081;BME280;37130;55.670;37.596;2022-12-13T14:32:27;98816.97;;;0.44;100.00
51081;BME280;37130;55.670;37.596;2022-12-13T14:34:56;98806.31;;;0.57;100.00
51081;BME280;37130;55.670;37.596;2022-12-13T14:37:26;98808.44;;;0.81;100.00
51081;BME280;37130;55.670;37.596;2022-12-13T14:39:53;98815.19;;;0.90;100.00
51081;BME280;37130;55.670;37.596;2022-12-13T14:42:27;98813.34;;;0.95;100.00
51081;BME280;37130;55.670;37.596;2022-12-13T14:45:24;98818.66;;;0.89;100.00
51081;BME280;37130;55.670;37.596;2022-12-13T14:47:53;98814.44;;;0.85;100.00
51081;BME280;37130;55.670;37.596;2022-12-13T14:50:24;98737.25;;;0.37;100.00
51081;BME280;37130;55.670;37.596;2022-12-13T14:52:52;98787.84;;;0.68;100.00
51081;BME280;37130;55.670;37.596;2022-12-13T14:55:24;98806.22;;;0.63;100.00
51081;BME280;37130;55.670;37.596;2022-12-13T14:57:54;98801.22;;;0.51;100.00
51081;BME280;37130;55.670;37.596;2022-12-13T15:00:31;98811.44;;;0.60;100.00
51081;BME280;37130;55.670;37.596;2022-12-13T15:03:01;98715.97;;;0.15;100.00
51081;BME280;37130;55.670;37.596;2022-12-13T15:05:39;98803.25;;;0.80;100.00
51081;BME280;37130;55.670;37.596;2022-12-13T15:08:16;98812.59;;;0.88;100.00
51081;BME280;37130;55.670;37.596;2022-12-13T15:10:47;98819.44;;;0.94;100.00
51081;BME280;37130;55.670;37.596;2022-12-13T15:13:43;98815.28;;;0.85;100.00
51081;BME280;37130;55.670;37.596;2022-12-13T15:16:24;98827.63;;;0.76;100.00
51081;BME280;37130;55.670;37.596;2022-12-13T15:19:16;98822.38;;;0.79;100.00
51081;BME280;37130;55.670;37.596;2022-12-13T15:22:04;98823.47;;;0.67;100.00
51081;BME280;37130;55.670;37.596;2022-12-13T15:24:39;98820.31;;;0.53;100.00
51081;BME280;37130;55.670;37.596;2022-12-13T15:27:14;98747.19;;;0.18;100.00
51081;BME280;37130;55.670;37.596;2022-12-13T15:29:43;98754.81;;;0.26;100.00
51081;BME280;37130;55.670;37.596;2022-12-13T15:32:16;98776.22;;;0.42;100.00
51081;BME280;37130;55.670;37.596;2022-12-13T15:34:46;98828.53;;;0.75;100.00
51081;BME280;37130;55.670;37.596;2022-12-13T15:37:27;98832.97;;;0.70;100.00
51081;BME280;37130;55.670;37.596;2022-12-13T15:39:59;98824.53;;;0.57;100.00
51081;BME280;37130;55.670;37.596;2022-12-13T15:42:36;98808.06;;;0.55;100.00
51081;BME280;37130;55.670;37.596;2022-12-13T15:45:16;98816.72;;;0.57;100.00